createdAt,value
2019-06-01T00:00:11.983Z,2.40
2019-06-01T00:02:14.032Z,2.80
2019-06-01T00:04:17.481Z,2.20
2019-06-01T00:06:20.900Z,2.60
2019-06-01T00:08:24.334Z,2.73
2019-06-01T00:10:27.842Z,2.30
2019-06-01T00:12:31.303Z,2.43
2019-06-01T00:14:34.821Z,2.33
2019-06-01T00:16:39.832Z,2.43
2019-06-01T00:18:43.998Z,2.40
2019-06-01T00:20:48.630Z,2.50
2019-06-01T00:22:52.147Z,2.60
2019-06-01T00:24:55.599Z,2.37
2019-06-01T00:26:59.029Z,2.60
2019-06-01T00:29:02.780Z,3.03
2019-06-01T00:31:06.356Z,2.67
2019-06-01T00:33:09.790Z,2.50
2019-06-01T00:35:13.305Z,2.60
2019-06-01T00:37:16.870Z,2.60
2019-06-01T00:39:20.283Z,2.33
2019-06-01T00:41:23.819Z,2.57
2019-06-01T00:43:27.239Z,2.57
2019-06-01T00:45:30.847Z,2.60
2019-06-01T00:47:34.323Z,2.30
2019-06-01T00:49:37.743Z,3.07
2019-06-01T00:51:42.825Z,2.50
2019-06-01T00:53:47.332Z,2.43
2019-06-01T00:55:51.600Z,2.33
2019-06-01T00:57:55.143Z,2.70
2019-06-01T00:59:58.551Z,2.70
2019-06-01T01:02:02.024Z,2.77
2019-06-01T01:04:05.592Z,2.90
2019-06-01T01:06:09.046Z,2.80
2019-06-01T01:08:12.501Z,3.00
2019-06-01T01:10:17.275Z,2.97
2019-06-01T01:12:20.721Z,2.97
2019-06-01T01:14:24.213Z,2.63
2019-06-01T01:16:27.655Z,3.43
2019-06-01T01:18:31.742Z,2.83
2019-06-01T01:20:36.615Z,3.00
2019-06-01T01:22:40.063Z,3.03
2019-06-01T01:24:43.491Z,2.50
2019-06-01T01:26:46.935Z,2.73
2019-06-01T01:28:50.712Z,2.80
2019-06-01T01:31:06.937Z,2.70
2019-06-01T01:32:59.604Z,2.70
2019-06-01T01:35:03.766Z,3.27
2019-06-01T01:37:07.218Z,2.60
2019-06-01T01:39:10.640Z,2.57
2019-06-01T01:41:14.070Z,2.73
2019-06-01T01:43:17.570Z,2.57
2019-06-01T01:45:21.748Z,2.60
2019-06-01T01:47:25.188Z,2.90
2019-06-01T01:49:28.624Z,2.60
2019-06-01T01:51:32.098Z,2.73
2019-06-01T01:53:35.534Z,2.67
2019-06-01T01:55:39.030Z,2.80
2019-06-01T01:57:42.466Z,2.97
2019-06-01T01:59:45.974Z,2.60
2019-06-01T02:01:50.365Z,2.63
2019-06-01T02:03:55.348Z,2.63
2019-06-01T02:05:59.172Z,2.80
2019-06-01T02:08:02.796Z,2.70
2019-06-01T02:10:08.530Z,2.47
2019-06-01T02:12:15.005Z,2.90
2019-06-01T02:14:18.496Z,2.60
2019-06-01T02:16:21.938Z,3.00
2019-06-01T02:18:25.372Z,2.90
2019-06-01T02:20:28.948Z,2.50
2019-06-01T02:22:32.456Z,2.67
2019-06-01T02:24:35.913Z,2.57
2019-06-01T02:26:39.337Z,2.90
2019-06-01T02:28:42.784Z,2.63
2019-06-01T02:30:46.552Z,2.83
2019-06-01T02:32:49.973Z,2.73
2019-06-01T02:34:54.331Z,3.20
2019-06-01T02:36:58.394Z,3.00
2019-06-01T02:39:03.285Z,3.10
2019-06-01T02:41:06.990Z,3.17
2019-06-01T02:43:10.646Z,2.70
2019-06-01T02:45:16.892Z,2.90
2019-06-01T02:47:20.402Z,3.20
2019-06-01T02:49:23.856Z,2.83
2019-06-01T02:51:27.334Z,2.73
2019-06-01T02:53:30.844Z,2.50
2019-06-01T02:55:34.402Z,2.87
2019-06-01T02:57:37.819Z,2.93
2019-06-01T02:59:41.272Z,2.90
2019-06-01T03:01:56.616Z,3.00
2019-06-01T03:03:51.924Z,2.87
2019-06-01T03:05:57.342Z,2.60
2019-06-01T03:08:01.352Z,2.90
2019-06-01T03:10:05.482Z,3.07
2019-06-01T03:12:14.955Z,2.70
2019-06-01T03:14:20.614Z,2.87
2019-06-01T03:16:27.119Z,2.90
2019-06-01T03:18:33.392Z,3.03
2019-06-01T03:20:39.556Z,3.30
2019-06-01T03:22:43.125Z,3.10
2019-06-01T03:24:48.698Z,2.93
2019-06-01T03:26:53.726Z,2.70
2019-06-01T03:29:00.225Z,3.10
2019-06-01T03:31:05.775Z,2.70
2019-06-01T03:33:10.591Z,2.77
2019-06-01T03:35:14.351Z,2.77
2019-06-01T03:37:17.909Z,3.10
2019-06-01T03:39:21.325Z,2.90
2019-06-01T03:41:25.012Z,3.00
2019-06-01T03:43:28.771Z,2.97
2019-06-01T03:45:32.288Z,3.33
2019-06-01T03:47:35.710Z,3.10
2019-06-01T03:49:41.727Z,3.10
2019-06-01T03:51:45.196Z,3.10
2019-06-01T03:53:48.624Z,3.20
2019-06-01T03:55:52.072Z,3.00
2019-06-01T03:57:55.487Z,2.90
2019-06-01T03:59:59.088Z,2.77
2019-06-01T04:02:02.986Z,3.17
2019-06-01T04:04:07.154Z,3.30
2019-06-01T04:06:11.418Z,2.90
2019-06-01T04:08:14.934Z,3.13
2019-06-01T04:10:18.460Z,3.13
2019-06-01T04:12:21.893Z,3.00
2019-06-01T04:14:25.382Z,3.27
2019-06-01T04:16:28.825Z,3.27
2019-06-01T04:18:35.191Z,2.87
2019-06-01T04:20:38.631Z,3.10
2019-06-01T04:22:42.084Z,3.20
2019-06-01T04:24:45.509Z,3.40
2019-06-01T04:26:48.951Z,3.17
2019-06-01T04:28:52.402Z,3.37
2019-06-01T04:30:55.847Z,3.10
2019-06-01T04:32:59.372Z,2.90
2019-06-01T04:35:03.508Z,3.03
2019-06-01T04:37:07.259Z,3.43
2019-06-01T04:39:11.652Z,3.10
2019-06-01T04:41:15.197Z,2.90
2019-06-01T04:43:18.617Z,2.97
2019-06-01T04:45:22.048Z,3.07
2019-06-01T04:47:25.502Z,3.20
2019-06-01T04:49:28.918Z,3.23
2019-06-01T04:51:32.361Z,3.10
2019-06-01T04:53:35.787Z,2.80
2019-06-01T04:55:39.210Z,3.00
2019-06-01T04:57:43.122Z,3.30
2019-06-01T04:59:46.567Z,3.10
2019-06-01T05:01:49.990Z,3.40
2019-06-01T05:03:53.442Z,2.97
2019-06-01T05:05:56.879Z,3.10
2019-06-01T05:08:00.327Z,3.13
2019-06-01T05:10:05.765Z,3.17
2019-06-01T05:12:09.378Z,3.30
2019-06-01T05:14:13.774Z,3.37
2019-06-01T05:16:17.304Z,3.20
2019-06-01T05:18:20.738Z,3.23
2019-06-01T05:20:24.405Z,3.77
2019-06-01T05:22:27.857Z,3.40
2019-06-01T05:24:31.296Z,4.03
2019-06-01T05:26:34.775Z,3.33
2019-06-01T05:28:38.278Z,3.40
2019-06-01T05:30:41.787Z,3.50
2019-06-01T05:32:45.228Z,4.00
2019-06-01T05:34:48.653Z,3.20
2019-06-01T05:36:52.170Z,3.03
2019-06-01T05:38:57.577Z,3.23
2019-06-01T05:41:00.996Z,3.87
2019-06-01T05:43:04.580Z,3.47
2019-06-01T05:45:09.363Z,3.17
2019-06-01T05:47:14.159Z,3.00
2019-06-01T05:49:18.581Z,3.23
2019-06-01T05:51:23.051Z,3.50
2019-06-01T05:53:26.706Z,3.60
2019-06-01T05:55:30.236Z,2.97
2019-06-01T05:57:33.740Z,3.63
2019-06-01T05:59:37.205Z,3.70
2019-06-01T06:01:40.628Z,3.60
2019-06-01T06:03:44.080Z,3.30
2019-06-01T06:05:47.512Z,3.60
2019-06-01T06:07:50.955Z,3.90
2019-06-01T06:09:54.456Z,3.83
2019-06-01T06:11:58.137Z,4.20
2019-06-01T06:14:01.656Z,4.00
2019-06-01T06:16:05.081Z,3.97
2019-06-01T06:18:11.759Z,3.63
2019-06-01T06:20:15.961Z,3.97
2019-06-01T06:22:20.331Z,4.07
2019-06-01T06:24:23.873Z,3.83
2019-06-01T06:26:27.309Z,4.00
2019-06-01T06:28:30.724Z,4.57
2019-06-01T06:30:34.251Z,4.47
2019-06-01T06:32:37.686Z,4.47
2019-06-01T06:34:41.195Z,4.73
2019-06-01T06:36:44.634Z,4.27
2019-06-01T06:38:48.061Z,4.57
2019-06-01T06:40:51.539Z,4.60
2019-06-01T06:42:55.004Z,3.87
2019-06-01T06:44:58.456Z,4.10
2019-06-01T06:47:02.100Z,4.00
2019-06-01T06:49:05.568Z,4.20
2019-06-01T06:51:09.014Z,4.27
2019-06-01T06:53:24.518Z,4.37
2019-06-01T06:55:17.840Z,3.70
2019-06-01T06:57:22.126Z,3.70
2019-06-01T06:59:26.646Z,3.90
2019-06-01T07:01:30.290Z,3.70
2019-06-01T07:03:33.735Z,3.40
2019-06-01T07:05:37.173Z,3.60
2019-06-01T07:07:40.591Z,3.27
2019-06-01T07:09:44.038Z,3.10
2019-06-01T07:11:47.540Z,3.33
2019-06-01T07:13:51.045Z,2.90
2019-06-01T07:15:54.490Z,3.03
2019-06-01T07:17:57.899Z,2.20
2019-06-01T07:20:01.359Z,2.20
2019-06-01T07:22:04.921Z,2.73
2019-06-01T07:24:08.340Z,3.13
2019-06-01T07:26:11.934Z,2.67
2019-06-01T07:28:15.444Z,3.53
2019-06-01T07:30:20.058Z,3.17
2019-06-01T07:32:24.641Z,3.27
2019-06-01T07:34:37.862Z,3.73
2019-06-01T07:36:33.396Z,3.87
2019-06-01T07:38:36.828Z,4.10
2019-06-01T07:40:40.262Z,3.70
2019-06-01T07:42:43.701Z,3.87
2019-06-01T07:44:47.114Z,4.10
2019-06-01T07:46:50.557Z,3.73
2019-06-01T07:48:53.995Z,3.83
2019-06-01T07:50:57.428Z,3.80
2019-06-01T07:53:00.898Z,3.77
2019-06-01T07:55:05.436Z,3.97
2019-06-01T07:57:08.967Z,3.70
2019-06-01T07:59:12.385Z,3.00
2019-06-01T08:01:15.857Z,2.83
2019-06-01T08:03:19.309Z,2.50
2019-06-01T08:05:23.797Z,2.17
2019-06-01T08:07:31.198Z,2.23
2019-06-01T08:09:34.761Z,1.90
2019-06-01T08:11:38.244Z,2.20
2019-06-01T08:13:41.759Z,1.77
2019-06-01T08:15:45.208Z,1.70
2019-06-01T08:17:48.683Z,1.67
2019-06-01T08:19:52.234Z,1.47
2019-06-01T08:21:55.801Z,1.77
2019-06-01T08:23:59.370Z,1.73
2019-06-01T08:26:02.802Z,1.80
2019-06-01T08:28:06.319Z,1.93
2019-06-01T08:30:10.025Z,2.20
2019-06-01T08:32:13.483Z,2.00
2019-06-01T08:34:17.011Z,2.03
2019-06-01T08:36:20.531Z,2.00
2019-06-01T08:38:25.407Z,2.10
2019-06-01T08:40:29.447Z,2.20
2019-06-01T08:42:33.718Z,1.70
2019-06-01T08:44:37.289Z,2.50
2019-06-01T08:46:40.716Z,2.60
2019-06-01T08:48:45.549Z,2.20
2019-06-01T08:50:49.130Z,2.20
2019-06-01T08:52:52.549Z,2.30
2019-06-01T08:54:56.067Z,2.40
2019-06-01T08:56:59.499Z,2.43
2019-06-01T08:59:03.166Z,1.80
2019-06-01T09:01:06.584Z,1.80
2019-06-01T09:03:10.013Z,1.90
2019-06-01T09:05:23.910Z,2.40
2019-06-01T09:07:19.509Z,2.20
2019-06-01T09:09:23.037Z,1.93
2019-06-01T09:11:27.028Z,2.10
2019-06-01T09:13:31.290Z,2.30
2019-06-01T09:15:35.597Z,2.20
2019-06-01T09:17:40.746Z,1.77
2019-06-01T09:19:44.178Z,1.80
2019-06-01T09:21:47.597Z,1.50
2019-06-01T09:23:51.051Z,1.63
2019-06-01T09:25:54.583Z,1.70
2019-06-01T09:27:58.084Z,1.47
2019-06-01T09:30:01.778Z,1.37
2019-06-01T09:32:10.336Z,1.67
2019-06-01T09:34:10.811Z,1.60
2019-06-01T09:36:14.273Z,1.37
2019-06-01T09:38:17.732Z,1.57
2019-06-01T09:40:21.311Z,1.50
2019-06-01T09:42:24.756Z,1.50
2019-06-01T09:44:28.891Z,1.67
2019-06-01T09:46:33.839Z,1.40
2019-06-01T09:48:37.816Z,1.70
2019-06-01T09:50:42.167Z,1.63
2019-06-01T09:52:45.610Z,1.40
2019-06-01T09:54:49.100Z,1.93
2019-06-01T09:56:52.548Z,1.60
2019-06-01T09:58:55.966Z,1.30
2019-06-01T10:00:59.490Z,1.33
2019-06-01T10:03:02.916Z,1.60
2019-06-01T10:05:06.474Z,1.80
2019-06-01T10:07:09.993Z,1.80
2019-06-01T10:09:13.512Z,1.30
2019-06-01T10:11:16.957Z,1.33
2019-06-01T10:13:20.384Z,1.30
2019-06-01T10:15:23.800Z,1.40
2019-06-01T10:17:27.330Z,1.30
2019-06-01T10:19:30.756Z,1.40
2019-06-01T10:21:34.283Z,1.53
2019-06-01T10:23:38.492Z,1.40
2019-06-01T10:25:42.632Z,1.30
2019-06-01T10:27:46.148Z,1.30
2019-06-01T10:29:49.581Z,1.57
2019-06-01T10:31:53.163Z,1.30
2019-06-01T10:33:56.589Z,1.27
2019-06-01T10:36:00.038Z,1.17
2019-06-01T10:38:06.196Z,1.10
2019-06-01T10:40:11.045Z,1.27
2019-06-01T10:42:14.480Z,1.17
2019-06-01T10:44:18.079Z,1.47
2019-06-01T10:46:21.524Z,1.30
2019-06-01T10:48:24.954Z,1.20
2019-06-01T10:50:28.368Z,1.23
2019-06-01T10:52:32.036Z,1.30
2019-06-01T10:54:36.142Z,1.23
2019-06-01T10:56:40.514Z,1.03
2019-06-01T10:58:59.377Z,0.93
2019-06-01T11:00:51.120Z,1.00
2019-06-01T11:02:54.471Z,1.10
2019-06-01T11:04:57.906Z,1.00
2019-06-01T11:07:01.401Z,1.20
2019-06-01T11:09:07.845Z,1.20
2019-06-01T11:11:11.299Z,1.23
2019-06-01T11:13:14.807Z,1.20
2019-06-01T11:15:18.482Z,1.10
2019-06-01T11:17:21.967Z,1.80
2019-06-01T11:19:25.436Z,1.57
2019-06-01T11:21:29.100Z,1.62
2019-06-01T11:23:33.282Z,1.10
2019-06-01T11:25:37.530Z,1.20
2019-06-01T11:27:41.878Z,1.17
2019-06-01T11:29:50.995Z,1.20
2019-06-01T11:31:50.716Z,1.10
2019-06-01T11:33:54.149Z,1.20
2019-06-01T11:36:00.443Z,1.70
2019-06-01T11:38:03.963Z,1.10
2019-06-01T11:40:08.140Z,1.20
2019-06-01T11:42:11.563Z,1.20
2019-06-01T11:44:15.085Z,1.70
2019-06-01T11:46:18.514Z,2.30
2019-06-01T11:48:21.960Z,1.42
2019-06-01T11:50:25.378Z,1.10
2019-06-01T11:52:28.812Z,1.00
2019-06-01T11:54:32.256Z,1.00
2019-06-01T11:56:37.100Z,1.10
2019-06-01T11:58:41.392Z,1.10
2019-06-01T12:00:45.873Z,1.03
2019-06-01T12:02:49.361Z,1.03
2019-06-01T12:04:52.876Z,1.00
2019-06-01T12:06:56.303Z,1.10
2019-06-01T12:08:59.812Z,1.23
2019-06-01T12:11:03.317Z,1.10
2019-06-01T12:13:07.351Z,1.35
2019-06-01T12:15:11.231Z,1.00
2019-06-01T12:17:14.662Z,1.03
2019-06-01T12:19:18.079Z,1.22
2019-06-01T12:21:21.538Z,1.00
2019-06-01T12:23:24.969Z,1.00
2019-06-01T12:25:28.502Z,1.00
2019-06-01T12:27:31.974Z,1.00
2019-06-01T12:29:35.421Z,0.90
2019-06-01T12:31:39.605Z,0.90
2019-06-01T12:33:44.209Z,1.35
2019-06-01T12:35:48.189Z,1.30
2019-06-01T12:38:05.655Z,1.05
2019-06-01T12:39:56.808Z,1.35
2019-06-01T12:42:00.257Z,1.30
2019-06-01T12:44:13.829Z,1.00
2019-06-01T12:46:17.455Z,1.00
2019-06-01T12:48:20.869Z,1.20
2019-06-01T12:50:24.396Z,1.02
2019-06-01T12:52:27.948Z,1.20
2019-06-01T12:54:31.390Z,1.12
2019-06-01T12:56:35.267Z,1.20
2019-06-01T12:58:39.866Z,1.40
2019-06-01T13:00:44.171Z,1.05
2019-06-01T13:02:59.474Z,1.10
2019-06-01T13:04:53.244Z,1.20
2019-06-01T13:06:56.724Z,1.30
2019-06-01T13:09:00.159Z,1.20
2019-06-01T13:11:03.904Z,1.20
2019-06-01T13:13:07.344Z,1.20
2019-06-01T13:15:11.198Z,1.02
2019-06-01T13:17:14.645Z,1.35
2019-06-01T13:19:18.065Z,1.10
2019-06-01T13:21:21.508Z,1.10
2019-06-01T13:23:24.953Z,1.30
2019-06-01T13:25:28.455Z,1.20
2019-06-01T13:27:31.960Z,1.10
2019-06-01T13:29:35.825Z,1.27
2019-06-01T13:31:39.261Z,1.40
2019-06-01T13:33:42.689Z,1.10
2019-06-01T13:35:46.582Z,1.10
2019-06-01T13:37:50.995Z,1.10
2019-06-01T13:39:58.097Z,1.20
2019-06-01T13:42:00.540Z,1.20
2019-06-01T13:44:04.495Z,1.30
2019-06-01T13:46:08.053Z,1.07
2019-06-01T13:48:11.506Z,1.10
2019-06-01T13:50:15.184Z,1.10
2019-06-01T13:52:18.652Z,1.40
2019-06-01T13:54:22.141Z,1.00
2019-06-01T13:56:25.554Z,1.10
2019-06-01T13:58:29.010Z,1.07
2019-06-01T14:00:32.444Z,1.10
2019-06-01T14:02:35.944Z,1.00
2019-06-01T14:04:39.436Z,1.17
2019-06-01T14:06:42.866Z,1.12
2019-06-01T14:08:46.871Z,1.40
2019-06-01T14:10:51.289Z,1.20
2019-06-01T14:12:55.561Z,1.10
2019-06-01T14:14:59.046Z,2.92
2019-06-01T14:17:02.489Z,1.15
2019-06-01T14:19:07.121Z,1.12
2019-06-01T14:21:10.775Z,1.17
2019-06-01T14:23:14.537Z,1.25
2019-06-01T14:25:18.062Z,1.10
2019-06-01T14:27:21.541Z,1.20
2019-06-01T14:29:24.985Z,1.47
2019-06-01T14:31:28.421Z,1.37
2019-06-01T14:33:31.884Z,1.00
2019-06-01T14:35:36.042Z,0.90
2019-06-01T14:37:39.663Z,1.27
2019-06-01T14:39:43.118Z,1.50
2019-06-01T14:41:46.775Z,1.22
2019-06-01T14:43:51.197Z,1.27
2019-06-01T14:45:55.749Z,1.10
2019-06-01T14:47:59.383Z,1.40
2019-06-01T14:50:04.175Z,1.12
2019-06-01T14:52:07.597Z,1.17
2019-06-01T14:54:11.304Z,1.07
2019-06-01T14:56:14.755Z,1.00
2019-06-01T14:58:18.241Z,1.10
2019-06-01T15:00:21.944Z,1.15
2019-06-01T15:02:25.452Z,1.20
2019-06-01T15:04:28.919Z,1.20
2019-06-01T15:06:32.356Z,1.20
2019-06-01T15:08:35.803Z,1.37
2019-06-01T15:10:39.243Z,1.02
2019-06-01T15:12:42.763Z,1.25
2019-06-01T15:14:46.232Z,1.30
2019-06-01T15:16:49.702Z,1.17
2019-06-01T15:18:54.359Z,1.00
2019-06-01T15:20:58.281Z,1.27
2019-06-01T15:23:03.547Z,1.20
2019-06-01T15:25:08.709Z,1.27
2019-06-01T15:27:12.135Z,1.30
2019-06-01T15:29:15.797Z,1.30
2019-06-01T15:31:19.321Z,1.32
2019-06-01T15:33:22.746Z,2.00
2019-06-01T15:35:26.579Z,1.50
2019-06-01T15:37:30.041Z,1.02
2019-06-01T15:39:33.499Z,1.10
2019-06-01T15:41:36.955Z,1.05
2019-06-01T15:43:40.379Z,1.00
2019-06-01T15:45:43.955Z,1.70
2019-06-01T15:47:47.391Z,1.60
2019-06-01T15:49:51.629Z,1.15
2019-06-01T15:51:55.824Z,1.40
2019-06-01T15:53:59.467Z,1.40
2019-06-01T15:56:03.559Z,1.32
2019-06-01T15:58:07.083Z,1.25
2019-06-01T16:00:11.471Z,1.22
2019-06-01T16:02:15.022Z,1.00
2019-06-01T16:04:21.079Z,1.15
2019-06-01T16:06:24.603Z,1.00
2019-06-01T16:08:28.061Z,1.70
2019-06-01T16:10:31.502Z,1.07
2019-06-01T16:12:35.014Z,1.30
2019-06-01T16:14:38.464Z,1.30
2019-06-01T16:16:42.070Z,1.10
2019-06-01T16:18:45.563Z,1.05
2019-06-01T16:20:49.160Z,1.10
2019-06-01T16:22:53.854Z,1.52
2019-06-01T16:24:58.152Z,1.37
2019-06-01T16:27:02.640Z,1.15
2019-06-01T16:29:06.219Z,1.40
2019-06-01T16:31:09.664Z,0.98
2019-06-01T16:33:13.330Z,0.82
2019-06-01T16:35:16.970Z,0.90
2019-06-01T16:37:20.407Z,1.10
2019-06-01T16:39:23.929Z,1.00
2019-06-01T16:41:27.687Z,0.85
2019-06-01T16:43:32.790Z,1.00
2019-06-01T16:45:36.288Z,1.00
2019-06-01T16:47:39.744Z,1.02
2019-06-01T16:49:43.190Z,1.00
2019-06-01T16:51:54.572Z,0.93
2019-06-01T16:53:58.042Z,1.52
2019-06-01T16:56:01.993Z,2.05
2019-06-01T16:58:06.675Z,1.47
2019-06-01T17:00:11.629Z,1.10
2019-06-01T17:02:15.143Z,1.40
2019-06-01T17:04:18.648Z,2.83
2019-06-01T17:06:22.205Z,1.85
2019-06-01T17:08:25.723Z,1.60
2019-06-01T17:10:29.167Z,1.60
2019-06-01T17:12:32.671Z,1.82
2019-06-01T17:14:36.113Z,3.00
2019-06-01T17:16:39.611Z,1.72
2019-06-01T17:18:43.082Z,2.00
2019-06-01T17:20:53.929Z,1.75
2019-06-01T17:22:57.563Z,1.75
2019-06-01T17:25:01.837Z,1.37
2019-06-01T17:27:06.039Z,1.67
2019-06-01T17:29:09.684Z,2.30
2019-06-01T17:31:14.168Z,2.20
2019-06-01T17:33:17.757Z,2.22
2019-06-01T17:35:21.442Z,1.35
2019-06-01T17:37:24.960Z,1.40
2019-06-01T17:39:28.401Z,1.50
2019-06-01T17:41:31.906Z,1.90
2019-06-01T17:43:35.519Z,2.52
2019-06-01T17:45:39.234Z,2.30
2019-06-01T17:47:42.689Z,5.08
2019-06-01T17:49:46.126Z,4.10
2019-06-01T17:51:49.607Z,3.90
2019-06-01T17:53:53.582Z,2.37
2019-06-01T17:55:57.046Z,1.75
2019-06-01T17:58:03.503Z,1.70
2019-06-01T18:00:07.968Z,2.22
2019-06-01T18:02:11.939Z,3.05
2019-06-01T18:04:15.540Z,2.97
2019-06-01T18:06:19.043Z,4.80
2019-06-01T18:08:23.669Z,3.10
2019-06-01T18:10:27.249Z,3.20
2019-06-01T18:12:30.758Z,8.65
2019-06-01T18:14:34.282Z,6.05
2019-06-01T18:16:37.808Z,4.50
2019-06-01T18:18:41.266Z,2.12
2019-06-01T18:20:44.861Z,2.05
2019-06-01T18:22:48.449Z,1.95
2019-06-01T18:24:51.985Z,1.90
2019-06-01T18:26:58.458Z,2.10
2019-06-01T18:29:02.491Z,1.47
2019-06-01T18:31:06.709Z,1.77
2019-06-01T18:33:11.196Z,1.50
2019-06-01T18:35:14.804Z,1.40
2019-06-01T18:37:18.217Z,2.00
2019-06-01T18:39:21.660Z,1.80
2019-06-01T18:41:25.119Z,2.00
2019-06-01T18:43:28.560Z,1.40
2019-06-01T18:45:32.667Z,1.70
2019-06-01T18:47:36.801Z,1.90
2019-06-01T18:49:40.332Z,1.70
2019-06-01T18:51:43.843Z,1.50
2019-06-01T18:53:47.518Z,1.77
2019-06-01T18:55:52.151Z,1.90
2019-06-01T18:57:58.814Z,1.37
2019-06-01T19:00:02.389Z,1.65
2019-06-01T19:02:06.373Z,2.23
2019-06-01T19:04:09.923Z,2.92
2019-06-01T19:06:13.843Z,2.37
2019-06-01T19:08:17.363Z,3.07
2019-06-01T19:10:21.024Z,3.03
2019-06-01T19:12:24.619Z,1.80
2019-06-01T19:14:28.092Z,5.00
2019-06-01T19:16:31.541Z,6.22
2019-06-01T19:18:35.007Z,6.73
2019-06-01T19:20:38.458Z,3.80
2019-06-01T19:22:41.972Z,4.70
2019-06-01T19:24:46.049Z,1.85
2019-06-01T19:26:49.547Z,1.77
2019-06-01T19:28:52.984Z,1.97
2019-06-01T19:30:56.421Z,1.67
2019-06-01T19:32:59.889Z,1.90
2019-06-01T19:35:04.597Z,3.13
2019-06-01T19:37:08.945Z,3.43
2019-06-01T19:39:13.315Z,3.00
2019-06-01T19:41:17.556Z,3.00
2019-06-01T19:43:21.210Z,2.33
2019-06-01T19:45:29.334Z,2.40
2019-06-01T19:47:29.804Z,2.73
2019-06-01T19:49:33.227Z,1.70
2019-06-01T19:51:36.658Z,2.97
2019-06-01T19:53:41.554Z,2.60
2019-06-01T19:55:44.962Z,2.40
2019-06-01T19:57:48.481Z,2.90
2019-06-01T19:59:51.914Z,2.80
2019-06-01T20:01:55.353Z,3.10
2019-06-01T20:03:58.948Z,2.90
2019-06-01T20:06:02.378Z,3.20
2019-06-01T20:08:05.978Z,2.97
2019-06-01T20:10:10.143Z,3.10
2019-06-01T20:12:16.624Z,3.30
2019-06-01T20:14:19.226Z,3.37
2019-06-01T20:16:22.972Z,3.37
2019-06-01T20:18:26.426Z,4.97
2019-06-01T20:20:29.847Z,3.43
2019-06-01T20:22:33.275Z,3.10
2019-06-01T20:24:36.851Z,3.77
2019-06-01T20:26:47.988Z,4.87
2019-06-01T20:28:45.507Z,4.50
2019-06-01T20:30:48.982Z,5.50
2019-06-01T20:32:54.424Z,3.77
2019-06-01T20:34:57.903Z,3.90
2019-06-01T20:37:01.417Z,3.50
2019-06-01T20:39:07.246Z,3.37
2019-06-01T20:41:10.699Z,2.63
2019-06-01T20:43:14.705Z,2.67
2019-06-01T20:45:18.795Z,3.00
2019-06-01T20:47:22.921Z,3.00
2019-06-01T20:49:26.465Z,3.47
2019-06-01T20:51:29.893Z,3.07
2019-06-01T20:53:33.345Z,3.60
2019-06-01T20:55:36.807Z,3.20
2019-06-01T20:57:40.253Z,3.10
2019-06-01T20:59:43.730Z,3.80
2019-06-01T21:01:47.418Z,3.10
2019-06-01T21:03:51.278Z,2.13
2019-06-01T21:05:54.727Z,2.13
2019-06-01T21:07:58.305Z,2.00
2019-06-01T21:10:01.902Z,2.20
2019-06-01T21:12:05.476Z,2.30
2019-06-01T21:14:11.915Z,2.30
2019-06-01T21:16:16.095Z,1.80
2019-06-01T21:18:20.858Z,2.53
2019-06-01T21:20:28.543Z,2.40
2019-06-01T21:22:29.614Z,2.40
2019-06-01T21:24:33.155Z,2.47
2019-06-01T21:26:36.612Z,2.30
2019-06-01T21:28:40.054Z,2.40
2019-06-01T21:30:47.823Z,2.00
2019-06-01T21:32:51.254Z,2.03
2019-06-01T21:34:54.687Z,2.13
2019-06-01T21:36:58.162Z,2.13
2019-06-01T21:39:01.743Z,2.07
2019-06-01T21:41:05.258Z,1.90
2019-06-01T21:43:23.911Z,2.33
2019-06-01T21:45:15.498Z,2.03
2019-06-01T21:47:25.822Z,2.57
2019-06-01T21:49:24.227Z,2.40
2019-06-01T21:51:27.667Z,2.10
2019-06-01T21:53:31.100Z,2.63
2019-06-01T21:55:34.525Z,2.10
2019-06-01T21:57:38.043Z,2.10
2019-06-01T21:59:43.245Z,2.23
2019-06-01T22:01:46.924Z,2.30
2019-06-01T22:03:50.351Z,2.20
2019-06-01T22:05:53.842Z,2.63
2019-06-01T22:07:57.285Z,2.00
2019-06-01T22:10:00.703Z,2.00
2019-06-01T22:12:04.362Z,2.03
2019-06-01T22:14:07.801Z,2.17
2019-06-01T22:16:11.252Z,2.07
2019-06-01T22:18:14.853Z,2.00
2019-06-01T22:20:18.365Z,2.33
2019-06-01T22:22:21.799Z,2.20
2019-06-01T22:24:25.920Z,1.80
2019-06-01T22:26:29.411Z,2.20
2019-06-01T22:28:33.128Z,2.10
2019-06-01T22:30:36.769Z,2.20
2019-06-01T22:32:40.220Z,2.00
2019-06-01T22:34:43.646Z,2.00
2019-06-01T22:36:47.075Z,2.20
2019-06-01T22:38:52.263Z,2.30
2019-06-01T22:40:55.689Z,2.00
2019-06-01T22:42:59.132Z,2.10
2019-06-01T22:45:02.624Z,2.10
2019-06-01T22:47:06.161Z,2.00
2019-06-01T22:49:09.650Z,1.80
2019-06-01T22:51:13.095Z,1.90
2019-06-01T22:53:16.528Z,2.20
2019-06-01T22:55:20.117Z,2.10
2019-06-01T22:57:24.369Z,2.10
2019-06-01T22:59:28.684Z,2.00
2019-06-01T23:01:32.921Z,2.00
2019-06-01T23:03:36.495Z,2.20
2019-06-01T23:05:39.998Z,2.00
2019-06-01T23:07:49.110Z,2.20
2019-06-01T23:09:52.554Z,2.10
2019-06-01T23:11:55.989Z,2.10
2019-06-01T23:13:59.431Z,2.13
2019-06-01T23:16:02.876Z,2.47
2019-06-01T23:18:06.445Z,2.77
2019-06-01T23:20:10.033Z,2.77
2019-06-01T23:22:13.459Z,3.47
2019-06-01T23:24:16.924Z,3.20
2019-06-01T23:26:20.339Z,2.50
2019-06-01T23:28:24.245Z,2.17
2019-06-01T23:30:28.287Z,2.00
2019-06-01T23:32:32.728Z,1.90
2019-06-01T23:34:36.488Z,2.07
2019-06-01T23:36:40.425Z,2.00
2019-06-01T23:38:43.867Z,2.00
2019-06-01T23:40:47.358Z,2.53
2019-06-01T23:42:50.800Z,3.67
2019-06-01T23:44:54.249Z,3.67
2019-06-01T23:46:57.682Z,2.80
2019-06-01T23:49:04.011Z,2.97
2019-06-01T23:51:07.447Z,2.93
2019-06-01T23:53:13.892Z,2.37
2019-06-01T23:55:16.177Z,2.40
2019-06-01T23:57:19.612Z,2.10
2019-06-01T23:59:24.061Z,2.40
